Bryan, Kentucky
Current Conditions -  °F | °C
As of 3:56 AM on Sunday 26 Oct 2014 (Local Time) from KEKQ Reporting Station
Moderate Fog Moderate Fog  
Wind Chill: 44°   Ceiling: 1300
Heat Index: 44°   Visibility: 0mi
Dew Point: 44°   Wind: 0mph
Humidity: 100%   Direction: NA
Pressure: 30.02"   Gusts: NA
Location:  36.9448°N, 85.1275°W
Report Text: KEKQ 260856Z AUTO 00000KT M1/4SM FG VV013 07/07 A3002 RMK AO2 50000 T00660066 SLP168
Loading
Personal Weather Stations






























Interactive Weather Map
Tropical Storm Tracking
New forecast layout! Learn more

10-Day Weather Forecast

Advertisements
Track Severe Weather on mobile